sensor_id;sensor_type;location;lat;lon;timestamp;pressure;altitude;pressure_sealevel;temperature;humidity
45323;BME280;31382;50.200;8.674;2023-05-03T00:04:36;101410.34;;;9.80;51.32
45323;BME280;31382;50.200;8.674;2023-05-03T00:09:38;101403.41;;;9.77;51.39
45323;BME280;31382;50.200;8.674;2023-05-03T00:14:39;101397.09;;;9.68;51.43
45323;BME280;31382;50.200;8.674;2023-05-03T00:19:40;101391.16;;;9.65;51.49
45323;BME280;31382;50.200;8.674;2023-05-03T00:24:42;101387.34;;;9.58;51.52
45323;BME280;31382;50.200;8.674;2023-05-03T00:29:45;101393.84;;;9.55;51.83
45323;BME280;31382;50.200;8.674;2023-05-03T00:34:46;101386.63;;;9.56;52.01
45323;BME280;31382;50.200;8.674;2023-05-03T00:39:47;101381.44;;;9.54;51.96
45323;BME280;31382;50.200;8.674;2023-05-03T00:44:49;101384.69;;;9.48;51.84
45323;BME280;31382;50.200;8.674;2023-05-03T00:49:51;101378.63;;;9.36;52.02
45323;BME280;31382;50.200;8.674;2023-05-03T00:54:52;101373.41;;;9.35;52.13
45323;BME280;31382;50.200;8.674;2023-05-03T00:59:56;101363.25;;;9.28;52.20
45323;BME280;31382;50.200;8.674;2023-05-03T01:04:57;101362.69;;;9.25;52.71
45323;BME280;31382;50.200;8.674;2023-05-03T01:10:21;101360.56;;;9.28;52.62
45323;BME280;31382;50.200;8.674;2023-05-03T01:15:38;101358.28;;;9.24;52.60
45323;BME280;31382;50.200;8.674;2023-05-03T01:20:45;101365.22;;;9.26;52.13
45323;BME280;31382;50.200;8.674;2023-05-03T01:25:51;101360.25;;;9.22;52.17
45323;BME280;31382;50.200;8.674;2023-05-03T01:31:00;101357.19;;;9.17;52.40
45323;BME280;31382;50.200;8.674;2023-05-03T01:36:10;101353.50;;;9.08;53.06
45323;BME280;31382;50.200;8.674;2023-05-03T01:41:15;101357.75;;;9.01;52.77
45323;BME280;31382;50.200;8.674;2023-05-03T01:46:23;101362.09;;;8.82;52.91
45323;BME280;31382;50.200;8.674;2023-05-03T01:51:28;101347.00;;;8.81;53.32
45323;BME280;31382;50.200;8.674;2023-05-03T01:56:29;101347.97;;;8.80;53.95
45323;BME280;31382;50.200;8.674;2023-05-03T02:01:31;101360.81;;;8.67;53.85
45323;BME280;31382;50.200;8.674;2023-05-03T02:06:33;101351.06;;;8.56;53.60
45323;BME280;31382;50.200;8.674;2023-05-03T02:11:34;101353.03;;;8.54;54.42
45323;BME280;31382;50.200;8.674;2023-05-03T02:42:49;101388.84;;;8.22;54.82
45323;BME280;31382;50.200;8.674;2023-05-03T02:47:50;101397.16;;;8.19;54.60
45323;BME280;31382;50.200;8.674;2023-05-03T03:15:48;101378.53;;;7.87;54.65
45323;BME280;31382;50.200;8.674;2023-05-03T03:20:50;101382.34;;;7.84;54.85
45323;BME280;31382;50.200;8.674;2023-05-03T03:25:51;101375.28;;;7.83;55.63
45323;BME280;31382;50.200;8.674;2023-05-03T03:30:53;101377.78;;;7.75;55.59
45323;BME280;31382;50.200;8.674;2023-05-03T03:35:54;101369.16;;;7.71;54.95
45323;BME280;31382;50.200;8.674;2023-05-03T03:40:56;101371.53;;;7.65;55.69
45323;BME280;31382;50.200;8.674;2023-05-03T03:45:57;101367.53;;;7.59;55.69
45323;BME280;31382;50.200;8.674;2023-05-03T03:50:59;101378.50;;;7.56;55.53
45323;BME280;31382;50.200;8.674;2023-05-03T03:56:00;101379.66;;;7.42;56.46
45323;BME280;31382;50.200;8.674;2023-05-03T04:01:02;101376.91;;;7.32;56.25
45323;BME280;31382;50.200;8.674;2023-05-03T04:06:04;101380.59;;;7.31;56.15
45323;BME280;31382;50.200;8.674;2023-05-03T04:11:10;101382.16;;;7.34;56.49
45323;BME280;31382;50.200;8.674;2023-05-03T04:16:12;101384.22;;;7.30;56.09
45323;BME280;31382;50.200;8.674;2023-05-03T04:21:13;101389.94;;;7.37;56.26
45323;BME280;31382;50.200;8.674;2023-05-03T04:26:15;101399.00;;;7.46;55.84
45323;BME280;31382;50.200;8.674;2023-05-03T04:31:31;101402.97;;;7.51;56.02
45323;BME280;31382;50.200;8.674;2023-05-03T04:36:33;101409.75;;;7.55;56.42
45323;BME280;31382;50.200;8.674;2023-05-03T04:41:34;101417.78;;;7.55;57.03
45323;BME280;31382;50.200;8.674;2023-05-03T04:46:36;101406.03;;;7.68;56.16
45323;BME280;31382;50.200;8.674;2023-05-03T04:51:37;101409.66;;;7.78;56.84
45323;BME280;31382;50.200;8.674;2023-05-03T04:56:39;101406.88;;;7.89;56.39
45323;BME280;31382;50.200;8.674;2023-05-03T05:01:40;101404.13;;;8.01;56.29
45323;BME280;31382;50.200;8.674;2023-05-03T05:06:42;101408.22;;;8.05;55.99
45323;BME280;31382;50.200;8.674;2023-05-03T05:11:43;101412.91;;;8.12;56.84
45323;BME280;31382;50.200;8.674;2023-05-03T05:16:44;101409.88;;;8.27;56.56
45323;BME280;31382;50.200;8.674;2023-05-03T05:21:46;101409.00;;;8.47;56.08
45323;BME280;31382;50.200;8.674;2023-05-03T05:26:48;101417.63;;;8.61;56.27
45323;BME280;31382;50.200;8.674;2023-05-03T05:31:49;101415.13;;;8.79;56.52
45323;BME280;31382;50.200;8.674;2023-05-03T05:36:51;101418.16;;;8.95;56.05
45323;BME280;31382;50.200;8.674;2023-05-03T05:41:53;101407.13;;;9.18;55.94
45323;BME280;31382;50.200;8.674;2023-05-03T05:46:54;101417.16;;;9.25;56.11
45323;BME280;31382;50.200;8.674;2023-05-03T05:51:56;101404.75;;;9.34;56.60
45323;BME280;31382;50.200;8.674;2023-05-03T05:56:57;101400.63;;;9.49;56.05
45323;BME280;31382;50.200;8.674;2023-05-03T06:01:59;101402.47;;;9.59;56.25
45323;BME280;31382;50.200;8.674;2023-05-03T06:07:00;101408.97;;;9.66;55.53
45323;BME280;31382;50.200;8.674;2023-05-03T06:12:02;101399.88;;;9.77;55.56
45323;BME280;31382;50.200;8.674;2023-05-03T06:17:03;101403.13;;;9.90;55.44
45323;BME280;31382;50.200;8.674;2023-05-03T06:22:05;101402.63;;;10.04;54.91
45323;BME280;31382;50.200;8.674;2023-05-03T06:27:07;101404.31;;;10.15;54.78
45323;BME280;31382;50.200;8.674;2023-05-03T06:32:08;101405.53;;;10.30;54.30
45323;BME280;31382;50.200;8.674;2023-05-03T06:37:09;101420.91;;;10.38;54.31
45323;BME280;31382;50.200;8.674;2023-05-03T06:42:11;101411.97;;;10.47;54.01
45323;BME280;31382;50.200;8.674;2023-05-03T06:47:12;101415.72;;;10.64;53.50
45323;BME280;31382;50.200;8.674;2023-05-03T06:52:14;101409.91;;;10.87;53.37
45323;BME280;31382;50.200;8.674;2023-05-03T06:57:16;101406.69;;;11.01;52.97
45323;BME280;31382;50.200;8.674;2023-05-03T07:02:17;101393.56;;;11.16;52.84
45323;BME280;31382;50.200;8.674;2023-05-03T07:07:19;101393.13;;;11.47;52.10
45323;BME280;31382;50.200;8.674;2023-05-03T07:12:20;101390.50;;;11.73;51.82
45323;BME280;31382;50.200;8.674;2023-05-03T07:17:27;101387.59;;;11.93;51.22
45323;BME280;31382;50.200;8.674;2023-05-03T07:22:29;101394.88;;;12.00;50.76
45323;BME280;31382;50.200;8.674;2023-05-03T07:27:30;101401.53;;;12.14;50.34
45323;BME280;31382;50.200;8.674;2023-05-03T07:32:32;101397.38;;;12.28;49.84
45323;BME280;31382;50.200;8.674;2023-05-03T07:37:33;101401.81;;;12.37;49.48
45323;BME280;31382;50.200;8.674;2023-05-03T07:42:35;101398.03;;;12.56;49.15
45323;BME280;31382;50.200;8.674;2023-05-03T07:47:36;101394.16;;;12.67;48.66
45323;BME280;31382;50.200;8.674;2023-05-03T07:52:40;101399.59;;;12.75;48.13
45323;BME280;31382;50.200;8.674;2023-05-03T07:57:43;101389.81;;;12.74;48.27
45323;BME280;31382;50.200;8.674;2023-05-03T08:02:45;101379.22;;;12.89;48.12
45323;BME280;31382;50.200;8.674;2023-05-03T08:07:47;101370.47;;;13.03;47.92
45323;BME280;31382;50.200;8.674;2023-05-03T08:12:48;101370.81;;;13.17;47.80
45323;BME280;31382;50.200;8.674;2023-05-03T08:17:49;101367.66;;;13.38;47.04
45323;BME280;31382;50.200;8.674;2023-05-03T08:22:51;101376.59;;;13.55;47.23
45323;BME280;31382;50.200;8.674;2023-05-03T08:27:57;101379.44;;;13.69;46.30
45323;BME280;31382;50.200;8.674;2023-05-03T08:32:58;101359.16;;;13.74;46.52
45323;BME280;31382;50.200;8.674;2023-05-03T08:38:00;101366.97;;;13.68;46.09
45323;BME280;31382;50.200;8.674;2023-05-03T08:43:06;101365.41;;;13.74;45.52
45323;BME280;31382;50.200;8.674;2023-05-03T08:48:08;101363.00;;;13.96;45.35
45323;BME280;31382;50.200;8.674;2023-05-03T08:53:10;101371.38;;;14.17;44.75
45323;BME280;31382;50.200;8.674;2023-05-03T08:58:12;101370.28;;;14.35;44.64
45323;BME280;31382;50.200;8.674;2023-05-03T09:03:13;101372.44;;;14.47;44.34
45323;BME280;31382;50.200;8.674;2023-05-03T09:08:15;101377.22;;;14.37;44.30
45323;BME280;31382;50.200;8.674;2023-05-03T09:13:17;101371.72;;;14.62;43.99
45323;BME280;31382;50.200;8.674;2023-05-03T09:18:19;101369.25;;;14.83;43.58
45323;BME280;31382;50.200;8.674;2023-05-03T09:28:25;101346.91;;;15.27;42.88
45323;BME280;31382;50.200;8.674;2023-05-03T09:33:28;101356.19;;;15.48;42.51
45323;BME280;31382;50.200;8.674;2023-05-03T09:38:31;101344.81;;;15.76;42.20
45323;BME280;31382;50.200;8.674;2023-05-03T09:43:34;101341.03;;;16.06;41.69
45323;BME280;31382;50.200;8.674;2023-05-03T09:48:39;101334.09;;;16.19;41.08
45323;BME280;31382;50.200;8.674;2023-05-03T09:53:41;101331.41;;;16.19;41.19
45323;BME280;31382;50.200;8.674;2023-05-03T09:58:42;101330.94;;;16.30;40.74
45323;BME280;31382;50.200;8.674;2023-05-03T10:03:46;101321.41;;;16.56;40.66
45323;BME280;31382;50.200;8.674;2023-05-03T10:09:00;101315.19;;;16.77;40.37
45323;BME280;31382;50.200;8.674;2023-05-03T10:14:06;101309.06;;;17.11;39.83
45323;BME280;31382;50.200;8.674;2023-05-03T10:19:16;101295.88;;;17.36;39.28
45323;BME280;31382;50.200;8.674;2023-05-03T10:24:19;101304.13;;;17.78;38.75
45323;BME280;31382;50.200;8.674;2023-05-03T10:34:33;101301.09;;;18.49;37.29
45323;BME280;31382;50.200;8.674;2023-05-03T10:39:35;101305.41;;;18.85;36.63
45323;BME280;31382;50.200;8.674;2023-05-03T10:44:39;101292.22;;;19.29;36.58
45323;BME280;31382;50.200;8.674;2023-05-03T10:49:41;101298.91;;;19.59;35.98
45323;BME280;31382;50.200;8.674;2023-05-03T10:54:43;101292.59;;;19.79;35.10
45323;BME280;31382;50.200;8.674;2023-05-03T10:59:46;101294.09;;;19.75;35.35
45323;BME280;31382;50.200;8.674;2023-05-03T11:04:48;101288.66;;;19.41;35.51
45323;BME280;31382;50.200;8.674;2023-05-03T11:09:52;101280.44;;;19.61;35.07
45323;BME280;31382;50.200;8.674;2023-05-03T11:14:53;101275.56;;;19.70;35.10
45323;BME280;31382;50.200;8.674;2023-05-03T11:19:55;101267.34;;;19.90;35.03
45323;BME280;31382;50.200;8.674;2023-05-03T11:24:56;101259.34;;;20.02;34.68
45323;BME280;31382;50.200;8.674;2023-05-03T11:29:58;101258.88;;;20.18;34.21
45323;BME280;31382;50.200;8.674;2023-05-03T11:35:00;101249.13;;;20.29;33.99
45323;BME280;31382;50.200;8.674;2023-05-03T11:40:05;101240.19;;;20.54;33.35
45323;BME280;31382;50.200;8.674;2023-05-03T11:45:08;101238.50;;;20.85;33.34
45323;BME280;31382;50.200;8.674;2023-05-03T11:50:10;101252.97;;;20.92;32.92
45323;BME280;31382;50.200;8.674;2023-05-03T11:55:12;101251.06;;;20.92;32.69
45323;BME280;31382;50.200;8.674;2023-05-03T12:00:14;101236.72;;;21.22;31.83
45323;BME280;31382;50.200;8.674;2023-05-03T12:05:20;101214.50;;;21.12;31.96
45323;BME280;31382;50.200;8.674;2023-05-03T12:10:30;101218.09;;;21.74;31.32
45323;BME280;31382;50.200;8.674;2023-05-03T12:15:35;101200.88;;;22.34;30.30
45323;BME280;31382;50.200;8.674;2023-05-03T12:20:38;101204.44;;;22.65;30.00
45323;BME280;31382;50.200;8.674;2023-05-03T12:25:43;101201.72;;;23.01;29.70
45323;BME280;31382;50.200;8.674;2023-05-03T12:30:45;101194.34;;;23.01;28.89
45323;BME280;31382;50.200;8.674;2023-05-03T12:46:47;101179.47;;;23.73;28.39
45323;BME280;31382;50.200;8.674;2023-05-03T12:51:50;101187.94;;;23.83;28.15
45323;BME280;31382;50.200;8.674;2023-05-03T12:57:12;101173.44;;;24.00;27.10
45323;BME280;31382;50.200;8.674;2023-05-03T13:02:16;101177.31;;;23.75;27.27
45323;BME280;31382;50.200;8.674;2023-05-03T13:07:38;101154.09;;;24.23;26.67
45323;BME280;31382;50.200;8.674;2023-05-03T13:12:43;101148.84;;;24.39;26.72
45323;BME280;31382;50.200;8.674;2023-05-03T13:17:45;101147.38;;;24.31;26.33
45323;BME280;31382;50.200;8.674;2023-05-03T13:22:48;101135.94;;;24.22;26.52
45323;BME280;31382;50.200;8.674;2023-05-03T13:27:50;101129.28;;;24.86;26.10
45323;BME280;31382;50.200;8.674;2023-05-03T13:32:53;101113.16;;;24.72;26.49
45323;BME280;31382;50.200;8.674;2023-05-03T13:37:54;101120.78;;;25.04;25.77
45323;BME280;31382;50.200;8.674;2023-05-03T13:42:56;101120.50;;;25.06;25.46
45323;BME280;31382;50.200;8.674;2023-05-03T13:47:57;101112.56;;;25.48;25.07
45323;BME280;31382;50.200;8.674;2023-05-03T13:53:18;101097.53;;;26.10;24.89
45323;BME280;31382;50.200;8.674;2023-05-03T13:58:20;101096.63;;;27.12;24.43
45323;BME280;31382;50.200;8.674;2023-05-03T14:03:22;101087.03;;;28.19;22.77
45323;BME280;31382;50.200;8.674;2023-05-03T14:08:24;101081.41;;;30.05;20.97
45323;BME280;31382;50.200;8.674;2023-05-03T14:13:26;101069.75;;;31.63;19.94
45323;BME280;31382;50.200;8.674;2023-05-03T14:18:31;101070.44;;;31.74;19.61
45323;BME280;31382;50.200;8.674;2023-05-03T14:23:32;101070.88;;;32.00;18.99
45323;BME280;31382;50.200;8.674;2023-05-03T14:28:34;101057.59;;;30.92;19.20
45323;BME280;31382;50.200;8.674;2023-05-03T14:33:36;101058.78;;;29.93;20.49
45323;BME280;31382;50.200;8.674;2023-05-03T14:38:37;101047.38;;;28.90;20.66
45323;BME280;31382;50.200;8.674;2023-05-03T14:43:39;101034.69;;;28.74;21.40
45323;BME280;31382;50.200;8.674;2023-05-03T14:48:40;101035.47;;;28.90;21.93
45323;BME280;31382;50.200;8.674;2023-05-03T14:53:41;101026.47;;;29.29;21.01
45323;BME280;31382;50.200;8.674;2023-05-03T14:58:43;101027.44;;;29.48;20.47
45323;BME280;31382;50.200;8.674;2023-05-03T15:03:44;101021.69;;;29.39;20.55
45323;BME280;31382;50.200;8.674;2023-05-03T15:08:46;101018.38;;;29.37;20.60
45323;BME280;31382;50.200;8.674;2023-05-03T15:13:48;101009.69;;;28.99;20.85
45323;BME280;31382;50.200;8.674;2023-05-03T15:18:50;101008.22;;;28.26;20.94
45323;BME280;31382;50.200;8.674;2023-05-03T15:23:51;101009.34;;;27.95;21.16
45323;BME280;31382;50.200;8.674;2023-05-03T15:28:54;101011.78;;;28.22;21.53
45323;BME280;31382;50.200;8.674;2023-05-03T15:33:55;101003.75;;;28.56;21.00
45323;BME280;31382;50.200;8.674;2023-05-03T15:38:57;101003.16;;;28.70;20.26
45323;BME280;31382;50.200;8.674;2023-05-03T15:43:58;100986.91;;;28.32;20.87
45323;BME280;31382;50.200;8.674;2023-05-03T15:49:05;100986.94;;;27.81;21.29
45323;BME280;31382;50.200;8.674;2023-05-03T15:54:06;100978.34;;;27.82;21.12
45323;BME280;31382;50.200;8.674;2023-05-03T15:59:08;100976.66;;;27.45;21.90
45323;BME280;31382;50.200;8.674;2023-05-03T16:04:10;100984.94;;;27.40;21.11
45323;BME280;31382;50.200;8.674;2023-05-03T16:09:11;100982.75;;;27.37;21.85
45323;BME280;31382;50.200;8.674;2023-05-03T16:14:13;100970.31;;;27.40;21.45
45323;BME280;31382;50.200;8.674;2023-05-03T16:19:14;100968.38;;;27.45;21.22
45323;BME280;31382;50.200;8.674;2023-05-03T16:24:17;100969.22;;;27.66;21.55
45323;BME280;31382;50.200;8.674;2023-05-03T16:29:18;100974.75;;;27.56;21.25
45323;BME280;31382;50.200;8.674;2023-05-03T16:34:20;100964.53;;;27.52;21.34
45323;BME280;31382;50.200;8.674;2023-05-03T16:39:22;100959.25;;;27.35;21.20
45323;BME280;31382;50.200;8.674;2023-05-03T16:44:23;100965.75;;;27.03;21.41
45323;BME280;31382;50.200;8.674;2023-05-03T16:49:25;100964.91;;;26.97;21.29
45323;BME280;31382;50.200;8.674;2023-05-03T16:54:27;100965.69;;;26.82;21.54
45323;BME280;31382;50.200;8.674;2023-05-03T16:59:28;100959.06;;;26.78;21.86
45323;BME280;31382;50.200;8.674;2023-05-03T17:04:30;100957.41;;;26.82;21.81
45323;BME280;31382;50.200;8.674;2023-05-03T17:09:31;100957.72;;;26.86;21.69
45323;BME280;31382;50.200;8.674;2023-05-03T17:14:32;100951.56;;;26.68;21.45
45323;BME280;31382;50.200;8.674;2023-05-03T17:19:34;100946.56;;;26.60;22.33
45323;BME280;31382;50.200;8.674;2023-05-03T17:24:35;100944.28;;;26.52;22.19
45323;BME280;31382;50.200;8.674;2023-05-03T17:29:37;100944.00;;;26.48;22.12
45323;BME280;31382;50.200;8.674;2023-05-03T17:34:38;100951.16;;;26.44;22.50
45323;BME280;31382;50.200;8.674;2023-05-03T17:39:39;100954.88;;;26.23;22.21
45323;BME280;31382;50.200;8.674;2023-05-03T17:44:41;100944.75;;;25.91;22.53
45323;BME280;31382;50.200;8.674;2023-05-03T17:49:43;100949.97;;;25.60;22.48
45323;BME280;31382;50.200;8.674;2023-05-03T17:54:44;100951.81;;;25.00;23.13
45323;BME280;31382;50.200;8.674;2023-05-03T17:59:46;100944.50;;;24.28;23.81
45323;BME280;31382;50.200;8.674;2023-05-03T18:04:48;100943.34;;;23.56;24.84
45323;BME280;31382;50.200;8.674;2023-05-03T18:09:50;100946.06;;;23.10;24.97
45323;BME280;31382;50.200;8.674;2023-05-03T18:14:52;100950.97;;;22.56;25.73
45323;BME280;31382;50.200;8.674;2023-05-03T18:19:59;100952.75;;;22.03;26.24
45323;BME280;31382;50.200;8.674;2023-05-03T18:25:03;100954.41;;;21.69;26.81
45323;BME280;31382;50.200;8.674;2023-05-03T18:30:07;100957.88;;;21.15;27.28
45323;BME280;31382;50.200;8.674;2023-05-03T18:35:10;100968.69;;;20.73;27.91
45323;BME280;31382;50.200;8.674;2023-05-03T18:40:12;100974.97;;;20.37;28.42
45323;BME280;31382;50.200;8.674;2023-05-03T18:45:13;100975.13;;;19.98;28.78
45323;BME280;31382;50.200;8.674;2023-05-03T18:50:15;100971.31;;;19.68;29.53
45323;BME280;31382;50.200;8.674;2023-05-03T18:55:16;100982.03;;;19.37;29.80
45323;BME280;31382;50.200;8.674;2023-05-03T19:00:18;100981.09;;;19.12;30.38
45323;BME280;31382;50.200;8.674;2023-05-03T19:05:19;100985.38;;;18.88;30.68
45323;BME280;31382;50.200;8.674;2023-05-03T19:10:21;100995.06;;;18.70;30.82
45323;BME280;31382;50.200;8.674;2023-05-03T19:15:22;100995.75;;;18.46;31.22
45323;BME280;31382;50.200;8.674;2023-05-03T19:20:24;101004.56;;;18.28;31.89
45323;BME280;31382;50.200;8.674;2023-05-03T19:25:25;101007.69;;;18.04;32.35
45323;BME280;31382;50.200;8.674;2023-05-03T19:30:27;101009.13;;;17.80;32.68
45323;BME280;31382;50.200;8.674;2023-05-03T19:35:28;101013.91;;;17.65;33.34
45323;BME280;31382;50.200;8.674;2023-05-03T19:40:30;101004.06;;;17.44;33.22
45323;BME280;31382;50.200;8.674;2023-05-03T19:45:32;101009.38;;;17.17;33.41
45323;BME280;31382;50.200;8.674;2023-05-03T19:50:34;101003.50;;;17.00;34.21
45323;BME280;31382;50.200;8.674;2023-05-03T19:55:36;101011.72;;;16.79;34.54
45323;BME280;31382;50.200;8.674;2023-05-03T20:00:37;101008.88;;;16.59;34.89
45323;BME280;31382;50.200;8.674;2023-05-03T20:05:39;101013.97;;;16.40;35.42
45323;BME280;31382;50.200;8.674;2023-05-03T20:10:41;101009.75;;;16.31;35.69
45323;BME280;31382;50.200;8.674;2023-05-03T20:15:46;101015.88;;;16.18;35.90
45323;BME280;31382;50.200;8.674;2023-05-03T20:20:47;101016.00;;;16.03;36.45
45323;BME280;31382;50.200;8.674;2023-05-03T20:25:49;101010.25;;;15.92;36.89
45323;BME280;31382;50.200;8.674;2023-05-03T20:30:50;101000.75;;;15.81;36.93
45323;BME280;31382;50.200;8.674;2023-05-03T20:35:52;101000.22;;;15.71;37.45
45323;BME280;31382;50.200;8.674;2023-05-03T20:40:53;100999.47;;;15.62;37.50
45323;BME280;31382;50.200;8.674;2023-05-03T20:45:56;100989.19;;;15.51;38.02
45323;BME280;31382;50.200;8.674;2023-05-03T20:50:57;100994.72;;;15.42;38.21
45323;BME280;31382;50.200;8.674;2023-05-03T20:56:01;100991.47;;;15.32;38.57
45323;BME280;31382;50.200;8.674;2023-05-03T21:01:06;100999.25;;;15.20;38.93
45323;BME280;31382;50.200;8.674;2023-05-03T21:06:08;100999.28;;;15.05;39.67
45323;BME280;31382;50.200;8.674;2023-05-03T21:11:09;101000.72;;;14.86;40.05
45323;BME280;31382;50.200;8.674;2023-05-03T21:16:11;100999.97;;;14.78;40.72
45323;BME280;31382;50.200;8.674;2023-05-03T21:21:12;101003.97;;;14.67;40.98
45323;BME280;31382;50.200;8.674;2023-05-03T21:26:14;101013.66;;;14.46;41.56
45323;BME280;31382;50.200;8.674;2023-05-03T21:31:16;101008.25;;;14.32;42.00
45323;BME280;31382;50.200;8.674;2023-05-03T21:36:17;101002.06;;;14.23;42.17
45323;BME280;31382;50.200;8.674;2023-05-03T21:41:19;101001.66;;;14.11;42.65
45323;BME280;31382;50.200;8.674;2023-05-03T21:46:20;101003.31;;;13.97;43.16
45323;BME280;31382;50.200;8.674;2023-05-03T21:51:22;100998.31;;;13.86;43.40
45323;BME280;31382;50.200;8.674;2023-05-03T21:56:23;101001.47;;;13.75;43.93
45323;BME280;31382;50.200;8.674;2023-05-03T22:01:25;100992.28;;;13.61;44.58
45323;BME280;31382;50.200;8.674;2023-05-03T22:06:26;100981.22;;;13.47;44.88
45323;BME280;31382;50.200;8.674;2023-05-03T22:11:28;100984.16;;;13.38;45.23
45323;BME280;31382;50.200;8.674;2023-05-03T22:16:29;100987.59;;;13.23;45.34
45323;BME280;31382;50.200;8.674;2023-05-03T22:21:31;100986.66;;;13.08;45.71
45323;BME280;31382;50.200;8.674;2023-05-03T22:26:32;100991.25;;;12.99;45.93
45323;BME280;31382;50.200;8.674;2023-05-03T22:31:34;100988.78;;;12.89;46.38
45323;BME280;31382;50.200;8.674;2023-05-03T22:36:35;100986.31;;;12.80;47.02
45323;BME280;31382;50.200;8.674;2023-05-03T22:41:37;100983.81;;;12.70;47.33
45323;BME280;31382;50.200;8.674;2023-05-03T22:46:39;100978.44;;;12.62;47.45
45323;BME280;31382;50.200;8.674;2023-05-03T22:51:40;100981.16;;;12.54;47.78
45323;BME280;31382;50.200;8.674;2023-05-03T22:56:41;100978.16;;;12.40;47.72
45323;BME280;31382;50.200;8.674;2023-05-03T23:01:43;100978.84;;;12.34;47.82
45323;BME280;31382;50.200;8.674;2023-05-03T23:06:46;100975.66;;;12.30;48.03
45323;BME280;31382;50.200;8.674;2023-05-03T23:11:47;100975.19;;;12.19;48.03
45323;BME280;31382;50.200;8.674;2023-05-03T23:16:48;100982.78;;;12.07;48.13
45323;BME280;31382;50.200;8.674;2023-05-03T23:21:50;100978.69;;;11.86;48.44
45323;BME280;31382;50.200;8.674;2023-05-03T23:26:51;100971.97;;;11.82;48.64
45323;BME280;31382;50.200;8.674;2023-05-03T23:31:53;100968.59;;;11.80;48.80
45323;BME280;31382;50.200;8.674;2023-05-03T23:36:55;100978.56;;;11.71;48.97
45323;BME280;31382;50.200;8.674;2023-05-03T23:41:56;100967.09;;;11.61;49.36
45323;BME280;31382;50.200;8.674;2023-05-03T23:46:59;100960.34;;;11.49;49.86
45323;BME280;31382;50.200;8.674;2023-05-03T23:52:00;100962.34;;;11.30;50.38
45323;BME280;31382;50.200;8.674;2023-05-03T23:57:02;100962.34;;;11.22;50.70
